Time;durP1;ratioP1;P1;durP2;ratioP2;P2;SDS_P1;SDS_P2;PMS_P1;PMS_P2;Temp;Humidity;BMP_temperature;BMP_pressure;BME280_temperature;BME280_humidity;BME280_pressure;Samples;Min_cycle;Max_cycle;Signal;HPM_P1;HPM_P2
2022/04/24 00:00:08;;;;;;;0.20;0.20;;;10.00;99.90;;;10.08;100.00;98598.88;5049936;28;20202;-75
2022/04/24 00:02:36;;;;;;;0.20;0.20;;;10.00;99.90;;;9.91;100.00;98596.56;5031150;28;20199;-75
2022/04/24 00:05:05;;;;;;;0.20;0.20;;;10.00;99.90;;;9.81;100.00;98588.81;5050317;28;20207;-75
2022/04/24 00:07:34;;;;;;;0.20;0.20;;;9.90;99.90;;;9.66;100.00;98589.97;5036360;28;20223;-75
2022/04/24 00:10:04;;;;;;;0.15;0.15;;;9.80;99.90;;;9.65;100.00;98605.81;5042056;28;20207;-75
2022/04/24 00:12:32;;;;;;;0.10;0.10;;;9.80;99.90;;;9.63;100.00;98605.84;5046099;28;20218;-75
2022/04/24 00:15:00;;;;;;;0.20;0.20;;;9.80;99.90;;;9.57;100.00;98611.22;5043092;28;20210;-75
2022/04/24 00:17:28;;;;;;;0.10;0.10;;;9.70;99.90;;;9.53;100.00;98620.06;5044967;28;20223;-75
2022/04/24 00:19:55;;;;;;;0.20;0.20;;;9.70;99.90;;;9.49;100.00;98613.97;5038456;28;20205;-75
2022/04/24 00:22:23;;;;;;;0.20;0.20;;;9.70;99.90;;;9.52;100.00;98618.34;5035727;28;20202;-74
2022/04/24 00:24:51;;;;;;;0.20;0.20;;;9.60;99.90;;;9.43;100.00;98616.72;5056270;28;20208;-74
2022/04/24 00:27:19;;;;;;;0.20;0.20;;;9.60;99.90;;;9.47;100.00;98626.31;5050594;28;20309;-75
2022/04/24 00:29:47;;;;;;;0.20;0.20;;;9.60;99.90;;;9.40;100.00;98624.69;5048890;28;20205;-75
2022/04/24 00:32:16;;;;;;;0.10;0.10;;;9.60;99.90;;;9.38;100.00;98631.75;5045305;28;20209;-75
2022/04/24 00:34:43;;;;;;;0.68;0.68;;;9.50;99.90;;;9.35;100.00;98631.78;5041115;28;20242;-74
2022/04/24 00:37:11;;;;;;;0.20;0.20;;;9.50;99.90;;;9.34;100.00;98637.94;5042734;28;20237;-75
2022/04/24 00:39:39;;;;;;;0.20;0.20;;;9.50;99.90;;;9.35;100.00;98639.69;5048505;28;20222;-75
2022/04/24 00:42:09;;;;;;;0.20;0.20;;;9.40;99.90;;;9.37;100.00;98643.19;5032264;28;20209;-75
2022/04/24 00:44:37;;;;;;;0.20;0.20;;;9.40;99.90;;;9.41;100.00;98654.56;5048365;28;20202;-75
2022/04/24 00:47:35;;;;;;;0.20;0.20;;;9.50;99.90;;;9.40;100.00;98655.47;5033202;28;20655;-75
2022/04/24 00:50:06;;;;;;;0.20;0.20;;;9.50;99.90;;;9.41;100.00;98663.34;5028130;28;20693;-75
2022/04/24 00:52:34;;;;;;;0.20;0.20;;;9.50;99.90;;;9.46;100.00;98663.28;5031454;28;20206;-75
2022/04/24 00:55:04;;;;;;;0.20;0.20;;;9.40;99.90;;;9.53;100.00;98667.56;5025746;28;20214;-75
2022/04/24 00:57:33;;;;;;;0.10;0.10;;;9.50;99.90;;;9.49;100.00;98664.09;5013476;28;20218;-75
2022/04/24 01:00:01;;;;;;;0.20;0.20;;;9.50;99.90;;;9.50;100.00;98672.91;5050536;28;20199;-75
2022/04/24 01:02:29;;;;;;;0.20;0.20;;;9.50;99.90;;;9.67;100.00;98691.13;5044168;28;20217;-75
2022/04/24 01:04:58;;;;;;;0.20;0.20;;;9.50;99.90;;;9.65;100.00;98690.28;5029100;28;20202;-75
2022/04/24 01:07:25;;;;;;;0.20;0.20;;;9.50;99.90;;;9.70;100.00;98686.66;5044132;28;20203;-75
2022/04/24 01:09:56;;;;;;;0.30;0.30;;;9.60;99.90;;;9.66;100.00;98678.81;5032321;28;20210;-75
2022/04/24 01:12:24;;;;;;;0.20;0.20;;;9.60;99.90;;;9.72;100.00;98684.00;5037981;28;20206;-75
2022/04/24 01:14:52;;;;;;;0.45;0.45;;;9.60;99.90;;;9.71;100.00;98677.84;5046783;28;20226;-75
2022/04/24 01:17:20;;;;;;;0.20;0.20;;;9.60;99.90;;;9.67;100.00;98680.56;5036502;28;20234;-75
2022/04/24 01:19:49;;;;;;;0.20;0.20;;;9.60;99.90;;;9.60;100.00;98683.28;5035536;28;20203;-73
2022/04/24 01:22:18;;;;;;;0.20;0.20;;;9.60;99.90;;;9.59;100.00;98684.19;5049292;28;20223;-75
2022/04/24 01:24:46;;;;;;;0.20;0.20;;;9.60;99.90;;;9.55;100.00;98676.34;5051269;28;20203;-76
2022/04/24 01:27:14;;;;;;;0.20;0.20;;;9.50;99.90;;;9.48;100.00;98683.47;5045136;28;20222;-75
2022/04/24 01:29:42;;;;;;;0.20;0.20;;;9.50;99.90;;;9.52;100.00;98686.94;5035102;28;20214;-74
2022/04/24 01:32:09;;;;;;;0.20;0.20;;;9.50;99.90;;;9.56;100.00;98697.41;5018629;28;20199;-75
2022/04/24 01:34:37;;;;;;;0.10;0.10;;;9.50;99.90;;;9.54;100.00;98687.78;5054010;28;20241;-75
2022/04/24 01:37:06;;;;;;;0.10;0.10;;;9.50;99.90;;;9.51;100.00;98693.97;5051649;28;20234;-75
2022/04/24 01:39:34;;;;;;;0.20;0.20;;;9.50;99.90;;;9.54;100.00;98700.97;5036865;28;20198;-75
2022/04/24 01:42:02;;;;;;;0.20;0.20;;;9.50;99.90;;;9.58;100.00;98708.81;5054742;28;20214;-74
2022/04/24 01:44:29;;;;;;;0.10;0.10;;;9.50;99.90;;;9.59;100.00;98713.22;5053164;28;20221;-75
2022/04/24 01:46:57;;;;;;;0.20;0.20;;;9.50;99.90;;;9.64;100.00;98718.41;5051572;28;20219;-75
2022/04/24 01:49:25;;;;;;;0.20;0.20;;;9.50;99.90;;;9.58;100.00;98714.09;5040063;28;20214;-75
2022/04/24 01:51:53;;;;;;;0.20;0.20;;;9.60;99.90;;;9.67;100.00;98714.88;5053056;28;20203;-75
2022/04/24 01:54:21;;;;;;;0.15;0.15;;;9.60;99.90;;;9.69;100.00;98724.50;5051644;28;20230;-75
2022/04/24 01:56:49;;;;;;;0.20;0.20;;;9.60;99.90;;;9.71;100.00;98720.06;5052047;28;20215;-74
2022/04/24 01:59:18;;;;;;;0.20;0.20;;;9.60;99.90;;;9.75;100.00;98721.78;5035276;28;20628;-75
2022/04/24 02:01:46;;;;;;;0.20;0.20;;;9.60;99.90;;;9.79;100.00;98723.47;5035715;28;20199;-75
2022/04/24 02:04:14;;;;;;;0.20;0.20;;;9.60;99.90;;;9.83;100.00;98719.88;5045814;28;20213;-75
2022/04/24 02:06:42;;;;;;;0.10;0.10;;;9.70;99.90;;;9.95;100.00;98729.38;5041881;28;20234;-75
2022/04/24 02:09:10;;;;;;;0.17;0.17;;;9.70;99.90;;;10.01;100.00;98731.94;5038065;28;20206;-75
2022/04/24 02:11:38;;;;;;;0.20;0.20;;;9.70;99.90;;;10.03;100.00;98721.34;5051493;28;20202;-74
2022/04/24 02:14:06;;;;;;;0.20;0.20;;;9.80;99.90;;;10.05;100.00;98723.06;5049399;28;20234;-75
2022/04/24 02:16:34;;;;;;;0.20;0.20;;;9.90;99.90;;;10.08;100.00;98725.66;5051902;28;20233;-75
2022/04/24 02:19:02;;;;;;;0.32;0.32;;;9.90;99.90;;;10.10;100.00;98720.34;5053145;28;20198;-75
2022/04/24 02:21:31;;;;;;;0.20;0.20;;;9.90;99.90;;;10.15;100.00;98726.44;5044801;28;20198;-75
2022/04/24 02:23:58;;;;;;;0.10;0.10;;;9.90;99.90;;;10.14;100.00;98725.56;5050438;28;20289;-75
2022/04/24 02:26:26;;;;;;;0.20;0.20;;;9.90;99.90;;;10.20;100.00;98717.56;5032724;28;20222;-75
2022/04/24 02:28:55;;;;;;;0.20;0.20;;;10.00;99.90;;;10.21;100.00;98718.44;5051866;28;20678;-76
2022/04/24 02:31:23;;;;;;;0.40;0.40;;;10.00;99.90;;;10.20;100.00;98714.03;5044316;28;20217;-76
2022/04/24 02:33:51;;;;;;;0.20;0.20;;;10.00;99.90;;;10.21;100.00;98715.78;5040995;28;20230;-75
2022/04/24 02:36:18;;;;;;;0.20;0.20;;;10.10;99.90;;;10.22;100.00;98709.59;5059808;28;20246;-75
2022/04/24 02:38:46;;;;;;;0.20;0.20;;;10.10;99.90;;;10.26;100.00;98703.38;5050586;28;20214;-75
2022/04/24 02:41:14;;;;;;;0.20;0.20;;;10.10;99.90;;;10.26;100.00;98704.25;5038630;28;20218;-75
2022/04/24 02:43:42;;;;;;;0.40;0.40;;;10.10;99.90;;;10.22;100.00;98704.31;5055527;28;20227;-75
2022/04/24 02:46:10;;;;;;;0.20;0.20;;;10.10;99.90;;;10.14;100.00;98698.28;5059575;28;20218;-75
2022/04/24 02:48:38;;;;;;;0.32;0.32;;;10.10;99.90;;;10.12;100.00;98702.69;5050950;28;20203;-76
2022/04/24 02:51:06;;;;;;;0.20;0.20;;;10.20;99.90;;;10.09;100.00;98708.03;5049368;28;20210;-75
2022/04/24 02:53:34;;;;;;;0.20;0.20;;;10.10;99.90;;;10.10;100.00;98718.56;5049146;28;20207;-74
2022/04/24 02:56:01;;;;;;;0.13;0.13;;;10.10;99.90;;;10.11;100.00;98711.53;5037839;28;20234;-75
2022/04/24 02:58:29;;;;;;;0.20;0.20;;;10.10;99.90;;;10.05;100.00;98703.69;5034516;28;20218;-75
2022/04/24 03:00:59;;;;;;;0.10;0.10;;;10.00;99.90;;;10.09;100.00;98708.03;5046463;28;20199;-75
2022/04/24 03:03:27;;;;;;;0.17;0.17;;;10.00;99.90;;;10.08;100.00;98709.81;5046492;28;20202;-75
2022/04/24 03:05:56;;;;;;;0.10;0.10;;;10.00;99.90;;;10.09;100.00;98701.00;5046599;28;20230;-75
2022/04/24 03:08:24;;;;;;;0.10;0.10;;;10.00;99.90;;;10.06;100.00;98697.53;5034213;28;20198;-75
2022/04/24 03:10:52;;;;;;;0.10;0.10;;;10.00;99.90;;;10.08;100.00;98706.28;5049660;28;20203;-75
2022/04/24 03:13:20;;;;;;;0.20;0.20;;;10.00;99.90;;;10.07;100.00;98700.13;5040755;28;20213;-75
2022/04/24 03:15:48;;;;;;;0.13;0.13;;;10.00;99.90;;;10.11;100.00;98701.84;5041219;28;20239;-75
2022/04/24 03:18:17;;;;;;;0.20;0.20;;;10.00;99.90;;;10.14;100.00;98707.06;5041484;28;20199;-75
2022/04/24 03:20:45;;;;;;;0.10;0.10;;;10.00;99.90;;;10.13;100.00;98712.38;5049939;28;20218;-75
2022/04/24 03:23:13;;;;;;;0.20;0.20;;;10.00;99.90;;;10.11;100.00;98730.88;5048765;28;20213;-75
2022/04/24 03:25:41;;;;;;;0.10;0.10;;;10.00;99.90;;;10.09;100.00;98734.44;5045399;28;20231;-75
2022/04/24 03:28:09;;;;;;;0.20;0.20;;;10.00;99.90;;;10.07;100.00;98734.47;5044360;28;20648;-75
2022/04/24 03:30:37;;;;;;;0.10;0.10;;;10.00;99.90;;;10.05;100.00;98732.75;5044092;28;20199;-75
2022/04/24 03:33:05;;;;;;;0.20;0.20;;;10.00;99.90;;;10.02;100.00;98730.16;5042602;28;20206;-76
2022/04/24 03:35:33;;;;;;;0.20;0.20;;;10.00;99.90;;;10.03;100.00;98726.63;5030573;28;20238;-75
2022/04/24 03:38:02;;;;;;;0.20;0.20;;;10.00;99.90;;;10.08;100.00;98724.78;5050789;28;20194;-75
2022/04/24 03:40:30;;;;;;;0.20;0.20;;;10.00;99.90;;;10.10;100.00;98728.28;5051932;28;20211;-75
2022/04/24 03:42:58;;;;;;;0.20;0.20;;;10.00;99.90;;;10.09;100.00;98729.16;5058996;28;20193;-75
2022/04/24 03:45:26;;;;;;;0.20;0.20;;;10.00;99.90;;;10.08;100.00;98730.06;5054803;28;20226;-75
2022/04/24 03:47:54;;;;;;;0.10;0.10;;;10.00;99.90;;;10.10;100.00;98725.63;5034063;28;20202;-75
2022/04/24 03:50:22;;;;;;;0.10;0.10;;;10.00;99.90;;;10.07;100.00;98716.00;5050515;28;20210;-75
2022/04/24 03:52:50;;;;;;;0.10;0.10;;;10.00;99.90;;;10.08;100.00;98712.44;5045601;28;20199;-75
2022/04/24 03:55:18;;;;;;;0.20;0.20;;;10.00;99.90;;;10.06;100.00;98716.00;5045389;28;20306;-75
2022/04/24 03:57:46;;;;;;;0.20;0.20;;;10.00;99.90;;;10.05;100.00;98711.63;5018070;28;20198;-75
2022/04/24 04:00:15;;;;;;;0.20;0.20;;;10.00;99.90;;;10.02;100.00;98707.28;5045613;28;20247;-75
2022/04/24 04:02:47;;;;;;;0.20;0.20;;;10.00;99.90;;;10.03;100.00;98710.78;5050012;28;20229;-75
2022/04/24 04:05:16;;;;;;;0.10;0.10;;;10.00;99.90;;;10.00;100.00;98706.41;5049385;28;20210;-75
2022/04/24 04:07:44;;;;;;;0.20;0.20;;;10.00;99.90;;;10.01;100.00;98705.53;5049456;28;20202;-76
2022/04/24 04:10:13;;;;;;;0.10;0.10;;;10.00;99.90;;;10.00;100.00;98703.78;5036106;28;20215;-75
2022/04/24 04:12:41;;;;;;;0.20;0.20;;;9.90;99.90;;;10.03;100.00;98710.78;5045704;28;20206;-75
2022/04/24 04:15:09;;;;;;;0.20;0.20;;;9.90;99.90;;;10.00;100.00;98698.50;5041430;28;20222;-75
2022/04/24 04:17:37;;;;;;;0.20;0.20;;;9.90;99.90;;;10.02;100.00;98699.34;5040865;28;20210;-75
2022/04/24 04:20:11;;;;;;;0.57;0.57;;;9.90;99.90;;;10.04;100.00;98701.97;5039672;28;20207;-74
2022/04/24 04:22:51;;;;;;;0.15;0.15;;;10.00;99.90;;;10.06;100.00;98697.53;5040480;28;20223;-74
2022/04/24 04:25:21;;;;;;;0.10;0.10;;;9.90;99.90;;;10.10;100.00;98686.88;5043676;28;20230;-75
2022/04/24 04:27:49;;;;;;;0.13;0.13;;;10.00;99.90;;;10.09;100.00;98679.88;5033927;28;20204;-75
2022/04/24 04:30:17;;;;;;;0.20;0.20;;;10.00;99.90;;;10.06;100.00;98674.63;5045281;28;20214;-74
2022/04/24 04:32:46;;;;;;;0.10;0.10;;;10.00;99.90;;;10.08;100.00;98674.59;5043303;28;20217;-74
2022/04/24 04:35:14;;;;;;;0.20;0.20;;;10.00;99.90;;;10.04;100.00;98694.03;5054166;28;20245;-76
2022/04/24 04:37:42;;;;;;;0.10;0.10;;;10.00;99.90;;;9.97;100.00;98702.97;5047112;28;20204;-75
2022/04/24 04:40:12;;;;;;;0.10;0.10;;;10.00;99.90;;;9.92;100.00;98732.94;5043228;28;20210;-75
2022/04/24 04:42:40;;;;;;;0.20;0.20;;;9.90;99.90;;;9.87;100.00;98747.13;5043651;28;20275;-77
2022/04/24 04:45:09;;;;;;;0.20;0.20;;;9.90;99.90;;;9.88;100.00;98760.28;5050963;28;20237;-76
2022/04/24 04:47:37;;;;;;;0.20;0.20;;;9.90;99.90;;;9.78;100.00;98779.81;5039503;28;20286;-78
2022/04/24 04:50:06;;;;;;;0.13;0.13;;;9.80;99.90;;;9.73;100.00;98804.53;5048796;28;20226;-77
2022/04/24 04:52:35;;;;;;;0.15;0.15;;;9.80;99.90;;;9.69;100.00;98806.31;5044782;28;20210;-77
2022/04/24 04:55:04;;;;;;;0.10;0.10;;;9.80;99.90;;;9.66;100.00;98811.66;5040069;28;20237;-77
2022/04/24 04:57:32;;;;;;;0.20;0.20;;;9.70;99.90;;;9.65;100.00;98836.28;5027040;28;20219;-78
2022/04/24 05:00:06;;;;;;;0.10;0.10;;;9.70;99.90;;;9.68;100.00;98838.91;5039631;28;20234;-77
2022/04/24 05:02:38;;;;;;;0.20;0.20;;;9.70;99.90;;;9.68;100.00;98830.97;5049281;28;20210;-77
2022/04/24 05:05:08;;;;;;;0.20;0.20;;;9.70;99.90;;;9.70;100.00;98834.47;5047741;28;20210;-77
2022/04/24 05:07:38;;;;;;;0.20;0.20;;;9.70;99.90;;;9.70;100.00;98830.94;5030317;28;20218;-77
2022/04/24 05:10:07;;;;;;;0.10;0.10;;;9.70;99.90;;;9.64;100.00;98845.09;5031667;28;20214;-77
2022/04/24 05:12:36;;;;;;;0.10;0.10;;;9.70;99.90;;;9.69;100.00;98858.25;5046830;28;20218;-76
2022/04/24 05:15:07;;;;;;;0.20;0.20;;;9.70;99.90;;;9.67;100.00;98854.75;5043217;28;20218;-77
2022/04/24 05:17:36;;;;;;;0.10;0.10;;;9.70;99.90;;;9.71;100.00;98873.16;5047612;28;20222;-77
2022/04/24 05:20:06;;;;;;;0.20;0.20;;;9.60;99.90;;;9.66;100.00;98882.91;5045583;28;20580;-77
2022/04/24 05:22:34;;;;;;;0.20;0.20;;;9.70;99.90;;;9.70;100.00;98881.97;5036268;28;20674;-77
2022/04/24 05:25:05;;;;;;;0.10;0.10;;;9.70;99.90;;;9.70;100.00;98889.03;5047964;28;20206;-77
2022/04/24 05:27:33;;;;;;;0.22;0.22;;;9.60;99.90;;;9.68;100.00;98896.97;5046429;28;20202;-77
2022/04/24 05:30:01;;;;;;;0.20;0.20;;;9.70;99.90;;;9.67;100.00;98907.53;5049284;28;20214;-78
2022/04/24 05:32:29;;;;;;;0.20;0.20;;;9.70;99.90;;;9.57;100.00;98918.19;5048329;28;20206;-78
2022/04/24 05:34:57;;;;;;;0.20;0.20;;;9.60;99.90;;;9.56;100.00;98941.97;5037901;28;20218;-77
2022/04/24 05:37:25;;;;;;;0.10;0.10;;;9.60;99.90;;;9.52;100.00;98949.03;5045284;28;20233;-76
2022/04/24 05:39:53;;;;;;;0.20;0.20;;;9.60;99.90;;;9.52;100.00;98972.78;5023516;28;20195;-77
2022/04/24 05:42:20;;;;;;;0.30;0.30;;;9.50;99.90;;;9.50;100.00;98976.34;5045485;28;20214;-76
2022/04/24 05:44:48;;;;;;;0.20;0.20;;;9.50;99.90;;;9.51;100.00;98992.16;5046276;28;20202;-74
2022/04/24 05:47:16;;;;;;;0.20;0.20;;;9.60;99.90;;;9.44;100.00;98992.22;5046544;28;20222;-76
2022/04/24 05:49:44;;;;;;;0.10;0.10;;;9.50;99.90;;;9.49;100.00;99008.88;5045701;28;20682;-75
2022/04/24 05:52:12;;;;;;;0.10;0.10;;;9.60;99.90;;;9.37;100.00;99023.06;5044709;28;20214;-75
2022/04/24 05:54:40;;;;;;;0.10;0.10;;;9.50;99.90;;;9.37;100.00;99045.94;5048250;28;20210;-76
2022/04/24 05:57:08;;;;;;;0.10;0.10;;;9.50;99.90;;;9.36;100.00;99075.84;5048203;28;20238;-76
2022/04/24 05:59:36;;;;;;;0.20;0.20;;;9.50;99.90;;;9.28;100.00;99076.78;5047301;28;20195;-76
2022/04/24 06:02:05;;;;;;;0.20;0.20;;;9.40;99.90;;;9.22;100.00;99100.56;5049168;28;20210;-76
2022/04/24 06:04:33;;;;;;;0.10;0.10;;;9.40;99.90;;;9.15;100.00;99098.84;5048842;28;20209;-76
2022/04/24 06:07:01;;;;;;;0.20;0.20;;;9.30;99.90;;;9.19;100.00;99105.84;5048470;28;20222;-76
2022/04/24 06:09:31;;;;;;;0.55;0.55;;;9.30;99.90;;;9.19;100.00;99105.84;5050558;28;20206;-78
2022/04/24 06:12:00;;;;;;;0.20;0.20;;;9.30;99.90;;;9.15;100.00;99096.22;5049909;28;20729;-78
2022/04/24 06:14:28;;;;;;;0.20;0.20;;;9.30;99.90;;;9.19;100.00;99097.06;5053019;28;20222;-76
2022/04/24 06:16:56;;;;;;;0.20;0.20;;;9.20;99.90;;;9.13;100.00;99103.25;5047518;28;20245;-77
2022/04/24 06:19:24;;;;;;;0.20;0.20;;;9.20;99.90;;;9.12;100.00;99111.19;5056700;28;20211;-76
2022/04/24 06:21:53;;;;;;;0.20;0.20;;;9.20;99.90;;;9.21;100.00;99122.53;5032434;28;20211;-75
2022/04/24 06:24:21;;;;;;;0.20;0.20;;;9.20;99.90;;;9.18;100.00;99114.66;5047061;28;20209;-76
2022/04/24 06:26:48;;;;;;;0.10;0.10;;;9.20;99.90;;;9.15;100.00;99122.59;5046623;28;20230;-76
2022/04/24 06:29:16;;;;;;;0.20;0.20;;;9.30;99.90;;;9.17;100.00;99127.84;5037579;28;20203;-75
2022/04/24 06:31:44;;;;;;;0.20;0.20;;;9.30;99.90;;;9.20;100.00;99139.25;5041704;28;20210;-76
2022/04/24 06:34:12;;;;;;;0.20;0.20;;;9.30;99.90;;;9.18;100.00;99143.66;5048197;28;20221;-74
2022/04/24 06:36:41;;;;;;;0.20;0.20;;;9.30;99.90;;;9.13;100.00;99140.19;5028560;28;20234;-75
2022/04/24 06:39:08;;;;;;;0.10;0.10;;;9.30;99.90;;;9.15;100.00;99150.72;5046826;28;20202;-75
2022/04/24 06:41:36;;;;;;;0.20;0.20;;;9.30;99.90;;;9.19;100.00;99163.88;5047991;28;20250;-74
2022/04/24 06:44:04;;;;;;;0.10;0.10;;;9.20;99.90;;;9.18;100.00;99179.72;5022997;28;20207;-76
2022/04/24 06:46:32;;;;;;;0.20;0.20;;;9.30;99.90;;;9.19;100.00;99184.97;5031473;28;20253;-75
2022/04/24 06:49:04;;;;;;;0.20;0.20;;;9.30;99.90;;;9.18;100.00;99183.22;5050959;28;20199;-75
2022/04/24 06:51:32;;;;;;;0.10;0.10;;;9.30;99.90;;;9.19;100.00;99192.03;5042182;28;20225;-75
2022/04/24 06:54:00;;;;;;;0.10;0.10;;;9.30;99.90;;;9.20;100.00;99177.94;5043651;28;20200;-74
2022/04/24 06:56:27;;;;;;;0.20;0.20;;;9.30;99.90;;;9.30;100.00;99213.94;5042974;28;20234;-73
2022/04/24 06:58:55;;;;;;;0.10;0.10;;;9.30;99.90;;;9.27;100.00;99222.75;5043112;28;20207;-75
2022/04/24 07:01:25;;;;;;;0.20;0.20;;;9.30;99.90;;;9.29;100.00;99217.47;5037833;28;20214;-75
2022/04/24 07:03:53;;;;;;;0.20;0.20;;;9.30;99.90;;;9.28;100.00;99215.72;5043822;28;20214;-76
2022/04/24 07:06:24;;;;;;;0.20;0.20;;;9.40;99.90;;;9.29;100.00;99207.78;5047011;28;20226;-76
2022/04/24 07:08:51;;;;;;;0.20;0.20;;;9.40;99.90;;;9.35;100.00;99213.91;5045842;28;20211;-76
2022/04/24 07:11:22;;;;;;;0.20;0.20;;;9.40;99.90;;;9.38;100.00;99219.19;5048820;28;20202;-75
2022/04/24 07:13:49;;;;;;;0.20;0.20;;;9.40;99.90;;;9.40;100.00;99225.31;5044540;28;20217;-76
2022/04/24 07:16:17;;;;;;;0.10;0.10;;;9.50;99.90;;;9.35;100.00;99208.63;5020786;28;20231;-76
2022/04/24 07:18:45;;;;;;;0.20;0.20;;;9.50;99.90;;;9.40;100.00;99206.84;5047868;28;20210;-77
2022/04/24 07:21:13;;;;;;;0.10;0.10;;;9.40;99.90;;;9.44;100.00;99221.78;5046762;28;20206;-76
2022/04/24 07:23:41;;;;;;;0.20;0.20;;;9.50;99.90;;;9.48;100.00;99236.69;5043036;28;20710;-77
2022/04/24 07:26:09;;;;;;;0.20;0.20;;;9.50;99.90;;;9.42;100.00;99240.25;5048817;28;20226;-77
2022/04/24 07:28:37;;;;;;;0.20;0.20;;;9.50;99.90;;;9.45;100.00;99256.06;5045098;28;20198;-77
2022/04/24 07:31:06;;;;;;;0.10;0.10;;;9.60;99.90;;;9.45;100.00;99253.44;5043292;28;20210;-76
2022/04/24 07:33:35;;;;;;;0.10;0.10;;;9.60;99.90;;;9.50;100.00;99249.00;5047424;28;20213;-76
2022/04/24 07:36:04;;;;;;;0.20;0.20;;;9.60;99.90;;;9.55;100.00;99235.78;5047775;28;20230;-75
2022/04/24 07:38:32;;;;;;;0.20;0.20;;;9.60;99.90;;;9.57;100.00;99247.22;5045267;28;20573;-76
2022/04/24 07:41:02;;;;;;;0.20;0.20;;;9.70;99.90;;;9.60;100.00;99265.66;5044132;28;20215;-76
2022/04/24 07:43:30;;;;;;;0.20;0.20;;;9.70;99.90;;;9.54;100.00;99242.81;5025852;28;20222;-77
2022/04/24 07:45:58;;;;;;;0.20;0.20;;;9.60;99.90;;;9.57;100.00;99257.75;5035794;28;20237;-76
2022/04/24 07:48:26;;;;;;;0.10;0.10;;;9.70;99.90;;;9.52;100.00;99236.69;5038650;28;20218;-75
2022/04/24 07:50:54;;;;;;;0.10;0.10;;;9.70;99.90;;;9.48;100.00;99240.22;5037502;28;20206;-75
2022/04/24 07:53:22;;;;;;;0.20;0.20;;;9.70;99.90;;;9.56;100.00;99254.25;5025848;28;20210;-76
2022/04/24 07:55:50;;;;;;;0.10;0.10;;;9.70;99.90;;;9.57;100.00;99253.38;5041426;28;20250;-76
2022/04/24 07:58:19;;;;;;;0.15;0.15;;;9.70;99.90;;;9.60;100.00;99250.72;5039188;28;20230;-75
2022/04/24 08:00:48;;;;;;;0.20;0.20;;;9.70;99.90;;;9.67;100.00;99253.31;5044644;28;20207;-75
2022/04/24 08:03:16;;;;;;;0.20;0.20;;;9.70;99.90;;;9.66;100.00;99243.63;5025633;28;20219;-75
2022/04/24 08:05:50;;;;;;;0.10;0.10;;;9.80;99.90;;;9.65;100.00;99236.59;5037607;28;20219;-75
2022/04/24 08:08:21;;;;;;;0.20;0.20;;;9.80;99.90;;;9.64;100.00;99238.38;5048498;28;20198;-76
2022/04/24 08:10:52;;;;;;;0.20;0.20;;;9.80;99.90;;;9.74;100.00;99245.34;5045076;28;20215;-75
2022/04/24 08:13:22;;;;;;;0.20;0.20;;;9.80;99.90;;;9.66;100.00;99249.78;5041851;28;20206;-74
2022/04/24 08:15:51;;;;;;;1.60;1.50;;;9.80;99.90;;;9.75;100.00;99257.66;5042390;28;20230;-76
2022/04/24 08:18:19;;;;;;;0.20;0.20;;;9.80;99.90;;;9.81;100.00;99260.25;5044211;28;20214;-75
2022/04/24 08:20:47;;;;;;;0.20;0.20;;;9.90;99.90;;;9.77;100.00;99261.16;5046466;28;20202;-75
2022/04/24 08:23:16;;;;;;;0.10;0.10;;;9.90;99.90;;;9.75;100.00;99256.78;5042585;28;20206;-75
2022/04/24 08:25:45;;;;;;;0.20;0.20;;;9.90;99.90;;;9.78;100.00;99243.56;5044307;28;20227;-75
2022/04/24 08:28:14;;;;;;;0.10;0.10;;;9.90;99.90;;;9.81;100.00;99264.66;5025831;28;20721;-74
2022/04/24 08:30:46;;;;;;;0.22;0.22;;;9.90;99.90;;;9.85;100.00;99274.31;5036542;28;20651;-74
2022/04/24 08:33:17;;;;;;;0.20;0.20;;;9.90;99.90;;;9.81;100.00;99257.59;5026631;28;20221;-74
2022/04/24 08:35:47;;;;;;;0.20;0.20;;;9.90;99.90;;;9.91;100.00;99268.97;5040095;28;20233;-73
2022/04/24 08:38:15;;;;;;;0.20;0.20;;;10.00;99.90;;;9.82;100.00;99263.75;5036853;28;20229;-75
2022/04/24 08:40:44;;;;;;;0.20;0.20;;;10.00;99.90;;;9.91;100.00;99248.75;5027677;28;20210;-74
2022/04/24 08:43:16;;;;;;;0.10;0.10;;;10.00;99.90;;;9.94;100.00;99251.34;5036610;28;20209;-75
2022/04/24 08:45:47;;;;;;;0.20;0.20;;;10.00;99.90;;;9.92;100.00;99239.06;5037981;28;20241;-75
2022/04/24 08:48:16;;;;;;;0.20;0.20;;;10.00;99.90;;;9.89;100.00;99220.59;5025218;28;20603;-74
2022/04/24 08:50:44;;;;;;;0.47;0.47;;;10.00;99.90;;;9.94;100.00;99202.94;5031842;28;20222;-75
2022/04/24 08:53:14;;;;;;;0.10;0.10;;;10.00;99.90;;;9.94;100.00;99201.19;5043827;28;20211;-75
2022/04/24 08:55:42;;;;;;;0.20;0.20;;;10.00;99.90;;;9.93;100.00;99188.88;5044130;28;20253;-73
2022/04/24 08:58:10;;;;;;;0.20;0.20;;;10.10;99.90;;;10.02;100.00;99193.19;5041190;28;20277;-75
2022/04/24 09:00:38;;;;;;;0.10;0.10;;;10.10;99.90;;;10.13;100.00;99203.66;5025558;28;20199;-74
2022/04/24 09:03:07;;;;;;;0.20;0.20;;;10.10;99.90;;;10.22;100.00;99211.53;5039693;28;20202;-75
2022/04/24 09:05:35;;;;;;;0.10;0.10;;;10.20;99.90;;;10.23;100.00;99206.25;5025220;28;20226;-74
2022/04/24 09:08:11;;;;;;;0.10;0.10;;;10.30;99.90;;;10.18;100.00;99186.00;5042219;28;20207;-74
2022/04/24 09:11:00;;;;;;;0.10;0.10;;;10.30;99.90;;;10.31;100.00;99200.88;5040470;28;20199;-74
2022/04/24 09:16:49;;;;;;;0.20;0.20;;;10.40;99.90;;;10.45;100.00;99209.59;5029147;28;20238;-75
2022/04/24 09:19:20;;;;;;;0.20;0.20;;;10.40;99.90;;;10.49;100.00;99210.44;5010139;28;20775;-74
2022/04/24 09:21:53;;;;;;;0.15;0.15;;;10.50;99.90;;;10.43;100.00;99184.94;5032108;28;20206;-74
2022/04/24 09:24:21;;;;;;;0.20;0.20;;;10.50;99.90;;;10.47;100.00;99177.84;5045417;28;20210;-75
2022/04/24 09:26:50;;;;;;;0.10;0.10;;;10.50;99.90;;;10.58;100.00;99194.47;5040778;28;20230;-75
2022/04/24 09:29:18;;;;;;;0.10;0.10;;;10.60;99.90;;;10.65;100.00;99198.81;5020839;28;20222;-74
2022/04/24 09:31:48;;;;;;;0.63;0.63;;;10.70;99.90;;;10.65;100.00;99180.28;5042445;28;20207;-75
2022/04/24 09:34:18;;;;;;;0.17;0.17;;;10.70;99.90;;;10.72;100.00;99174.03;5035940;28;20203;-75
2022/04/24 09:36:58;;;;;;;0.15;0.15;;;10.70;99.90;;;10.71;100.00;99168.78;5043021;28;20234;-74
2022/04/24 09:39:31;;;;;;;0.20;0.20;;;10.80;99.90;;;10.72;100.00;99154.66;5027421;28;20236;-74
2022/04/24 09:42:03;;;;;;;0.20;0.20;;;10.80;99.90;;;10.79;100.00;99158.97;5045354;28;20202;-74
2022/04/24 09:44:42;;;;;;;0.20;0.20;;;10.90;99.90;;;10.83;100.00;99158.91;5044333;28;20233;-74
2022/04/24 09:47:30;;;;;;;0.20;0.20;;;10.90;99.90;;;10.97;100.00;99165.81;5046155;28;20211;-74
2022/04/24 09:50:01;;;;;;;0.13;0.13;;;11.00;99.90;;;10.95;100.00;99151.72;5045803;28;20280;-74
2022/04/24 09:52:32;;;;;;;0.10;0.10;;;11.00;99.90;;;11.02;100.00;99161.34;5043274;28;20216;-75
2022/04/24 09:55:00;;;;;;;0.32;0.32;;;11.10;99.90;;;11.08;100.00;99166.53;5046794;28;20214;-74
2022/04/24 09:57:29;;;;;;;0.10;0.10;;;11.10;99.90;;;11.10;100.00;99167.41;5044921;28;20218;-74
2022/04/24 09:59:57;;;;;;;0.10;0.10;;;11.20;99.90;;;11.19;100.00;99162.84;5023300;28;20222;-72
2022/04/24 10:02:27;;;;;;;0.10;0.10;;;11.20;99.90;;;11.34;100.00;99182.06;5022923;28;20210;-73
2022/04/24 10:04:56;;;;;;;0.10;0.10;;;11.30;99.90;;;11.30;100.00;99164.47;5026736;28;20209;-74
2022/04/24 10:07:24;;;;;;;0.10;0.10;;;11.40;99.90;;;11.22;100.00;99146.06;5011788;28;20218;-73
2022/04/24 10:09:52;;;;;;;0.10;0.10;;;11.40;99.90;;;11.31;100.00;99156.50;5021110;28;20202;-74
2022/04/24 10:12:23;;;;;;;0.10;0.10;;;11.50;99.90;;;11.35;100.00;99170.56;5025961;28;20698;-73
2022/04/24 10:15:02;;;;;;;0.10;0.10;;;11.50;99.90;;;11.35;100.00;99189.09;5013822;28;20664;-73
2022/04/24 10:17:48;;;;;;;0.20;0.20;;;11.60;99.90;;;11.31;100.00;99172.41;5019470;28;20219;-74
2022/04/24 10:20:41;;;;;;;0.10;0.10;;;11.50;99.90;;;11.27;100.00;99160.09;5043137;28;20210;-74
2022/04/24 10:23:10;;;;;;;0.10;0.10;;;11.50;99.90;;;11.23;100.00;99139.88;5022676;28;20203;-74
2022/04/24 10:25:42;;;;;;;0.30;0.30;;;11.50;99.90;;;11.36;100.00;99152.03;5045139;28;20222;-74
2022/04/24 10:28:19;;;;;;;0.10;0.10;;;11.50;99.90;;;11.44;100.00;99149.28;5027579;28;20213;-74
2022/04/24 10:31:01;;;;;;;0.30;0.30;;;11.60;99.90;;;11.54;100.00;99156.16;5030842;28;20211;-74